createdAt,value
2019-01-13T00:00:12.185Z,17.71
2019-01-13T00:01:10.257Z,17.71
2019-01-13T00:02:10.427Z,17.71
2019-01-13T00:03:10.204Z,17.7
2019-01-13T00:04:10.371Z,17.7
2019-01-13T00:05:11.466Z,17.69
2019-01-13T00:06:10.303Z,17.69
2019-01-13T00:07:12.222Z,17.7
2019-01-13T00:08:11.125Z,17.69
2019-01-13T00:09:10.314Z,17.67
2019-01-13T00:10:10.796Z,17.67
2019-01-13T00:11:10.373Z,17.67
2019-01-13T00:12:12.201Z,17.67
2019-01-13T00:13:11.056Z,17.67
2019-01-13T00:14:11.199Z,17.66
2019-01-13T00:15:10.362Z,17.65
2019-01-13T00:16:10.756Z,17.63
2019-01-13T00:17:10.307Z,17.64
2019-01-13T00:18:10.781Z,17.62
2019-01-13T00:19:10.568Z,17.63
2019-01-13T00:20:10.583Z,17.62
2019-01-13T00:21:10.489Z,17.62
2019-01-13T00:22:10.542Z,17.63
2019-01-13T00:23:10.315Z,17.61
2019-01-13T00:24:10.318Z,17.61
2019-01-13T00:25:10.173Z,17.61
2019-01-13T00:26:10.732Z,17.61
2019-01-13T00:27:10.665Z,17.6
2019-01-13T00:28:10.770Z,17.6
2019-01-13T00:29:10.575Z,17.6
2019-01-13T00:30:10.778Z,17.59
2019-01-13T00:31:10.613Z,17.58
2019-01-13T00:32:10.770Z,17.57
2019-01-13T00:33:10.409Z,17.57
2019-01-13T00:34:10.621Z,17.56
2019-01-13T00:35:10.564Z,17.56
2019-01-13T00:36:11.458Z,17.55
2019-01-13T00:37:10.330Z,17.54
2019-01-13T00:38:10.637Z,17.54
2019-01-13T00:39:10.427Z,17.54
2019-01-13T00:40:10.687Z,17.52
2019-01-13T00:41:10.817Z,17.54
2019-01-13T00:42:10.154Z,17.54
2019-01-13T00:43:10.747Z,17.54
2019-01-13T00:44:11.156Z,17.54
2019-01-13T00:45:10.128Z,17.52
2019-01-13T00:46:10.606Z,17.52
2019-01-13T00:47:12.282Z,17.53
2019-01-13T00:48:10.309Z,17.52
2019-01-13T00:49:10.594Z,17.52
2019-01-13T00:50:10.727Z,17.51
2019-01-13T00:51:10.179Z,17.5
2019-01-13T00:52:10.341Z,17.5
2019-01-13T00:53:10.155Z,17.48
2019-01-13T00:54:10.216Z,17.48
2019-01-13T00:55:10.411Z,17.48
2019-01-13T00:56:10.529Z,17.48
2019-01-13T00:57:12.063Z,17.48
2019-01-13T00:58:10.944Z,17.48
2019-01-13T00:59:12.144Z,17.47
2019-01-13T01:00:10.254Z,17.47
2019-01-13T01:01:10.999Z,17.47
2019-01-13T01:02:10.685Z,17.47
2019-01-13T01:03:10.774Z,17.46
2019-01-13T01:04:10.268Z,17.45
2019-01-13T01:05:10.395Z,17.44
2019-01-13T01:06:10.476Z,17.44
2019-01-13T01:07:10.711Z,17.43
2019-01-13T01:08:10.625Z,17.43
2019-01-13T01:09:10.460Z,17.42
2019-01-13T01:10:10.315Z,17.42
2019-01-13T01:11:10.756Z,17.42
2019-01-13T01:12:10.486Z,17.42
2019-01-13T01:13:10.350Z,17.42
2019-01-13T01:14:10.715Z,17.42
2019-01-13T01:15:10.551Z,17.41
2019-01-13T01:16:10.511Z,17.42
2019-01-13T01:17:10.358Z,17.41
2019-01-13T01:18:10.278Z,17.4
2019-01-13T01:19:10.628Z,17.39
2019-01-13T01:20:10.941Z,17.4
2019-01-13T01:21:10.497Z,17.39
2019-01-13T01:22:10.228Z,17.39
2019-01-13T01:23:10.422Z,17.38
2019-01-13T01:24:12.149Z,17.36
2019-01-13T01:25:10.366Z,17.36
2019-01-13T01:26:10.279Z,17.37
2019-01-13T01:27:10.543Z,17.36
2019-01-13T01:28:10.966Z,17.36
2019-01-13T01:29:10.138Z,17.36
2019-01-13T01:30:10.339Z,17.36
2019-01-13T01:31:10.676Z,17.36
2019-01-13T01:32:10.268Z,17.36
2019-01-13T01:33:10.366Z,17.35
2019-01-13T01:34:10.720Z,17.33
2019-01-13T01:35:10.506Z,17.33
2019-01-13T01:36:10.316Z,17.32
2019-01-13T01:37:10.147Z,17.33
2019-01-13T01:38:10.212Z,17.31
2019-01-13T01:39:11.051Z,17.3
2019-01-13T01:40:10.241Z,17.31
2019-01-13T01:41:10.210Z,17.31
2019-01-13T01:42:10.747Z,17.31
2019-01-13T01:43:10.237Z,17.3
2019-01-13T01:44:10.240Z,17.29
2019-01-13T01:45:10.390Z,17.29
2019-01-13T01:46:10.299Z,17.29
2019-01-13T01:47:10.388Z,17.28
2019-01-13T01:48:11.016Z,17.28
2019-01-13T01:49:10.176Z,17.28
2019-01-13T01:50:10.419Z,17.27
2019-01-13T01:51:10.225Z,17.27
2019-01-13T01:52:10.286Z,17.27
2019-01-13T01:53:10.523Z,17.27
2019-01-13T01:54:10.299Z,17.26
2019-01-13T01:55:10.353Z,17.25
2019-01-13T01:56:11.125Z,17.26
2019-01-13T01:57:10.326Z,17.25
2019-01-13T01:58:10.683Z,17.25
2019-01-13T01:59:10.215Z,17.23
2019-01-13T02:00:10.218Z,17.24
2019-01-13T02:01:10.510Z,17.23
2019-01-13T02:02:10.451Z,17.23
2019-01-13T02:03:10.342Z,17.23
2019-01-13T02:04:10.209Z,17.23
2019-01-13T02:05:10.901Z,17.23
2019-01-13T02:06:10.670Z,17.22
2019-01-13T02:07:10.481Z,17.22
2019-01-13T02:08:10.672Z,17.21
2019-01-13T02:09:10.615Z,17.2
2019-01-13T02:10:10.279Z,17.2
2019-01-13T02:11:10.949Z,17.19
2019-01-13T02:12:10.341Z,17.2
2019-01-13T02:13:11.136Z,17.19
2019-01-13T02:14:10.702Z,17.19
2019-01-13T02:15:10.151Z,17.18
2019-01-13T02:16:10.138Z,17.18
2019-01-13T02:17:10.386Z,17.18
2019-01-13T02:18:10.134Z,17.18
2019-01-13T02:19:10.292Z,17.18
2019-01-13T02:20:10.523Z,17.17
2019-01-13T02:21:10.377Z,17.17
2019-01-13T02:22:10.224Z,17.17
2019-01-13T02:23:10.617Z,17.17
2019-01-13T02:24:10.566Z,17.16
2019-01-13T02:25:10.452Z,17.15
2019-01-13T02:26:10.318Z,17.17
2019-01-13T02:27:10.320Z,17.17
2019-01-13T02:28:10.476Z,17.15
2019-01-13T02:29:10.582Z,17.16
2019-01-13T02:30:10.648Z,17.16
2019-01-13T02:31:10.732Z,17.16
2019-01-13T02:32:10.443Z,17.15
2019-01-13T02:33:10.325Z,17.15
2019-01-13T02:34:10.740Z,17.14
2019-01-13T02:35:10.116Z,17.15
2019-01-13T02:36:10.562Z,17.14
2019-01-13T02:37:10.134Z,17.14
2019-01-13T02:38:10.445Z,17.15
2019-01-13T02:39:10.497Z,17.14
2019-01-13T02:40:10.811Z,17.14
2019-01-13T02:41:10.871Z,17.14
2019-01-13T02:42:10.717Z,17.13
2019-01-13T02:43:10.437Z,17.12
2019-01-13T02:44:10.245Z,17.13
2019-01-13T02:45:10.263Z,17.11
2019-01-13T02:46:10.547Z,17.12
2019-01-13T02:47:11.430Z,17.12
2019-01-13T02:48:10.614Z,17.1
2019-01-13T02:49:10.148Z,17.1
2019-01-13T02:50:10.322Z,17.1
2019-01-13T02:51:10.596Z,17.09
2019-01-13T02:52:10.553Z,17.08
2019-01-13T02:53:10.563Z,17.08
2019-01-13T02:54:10.366Z,17.07
2019-01-13T02:55:10.398Z,17.08
2019-01-13T02:56:10.203Z,17.08
2019-01-13T02:57:10.284Z,17.08
2019-01-13T02:58:10.890Z,17.07
2019-01-13T02:59:10.694Z,17.07
2019-01-13T03:00:10.160Z,17.06
2019-01-13T03:01:10.220Z,17.07
2019-01-13T03:02:10.374Z,17.07
2019-01-13T03:03:10.437Z,17.07
2019-01-13T03:04:12.195Z,17.06
2019-01-13T03:05:10.431Z,17.04
2019-01-13T03:06:10.551Z,17.04
2019-01-13T03:07:10.454Z,17.04
2019-01-13T03:08:11.193Z,17.06
2019-01-13T03:09:10.261Z,17.05
2019-01-13T03:10:10.356Z,17.04
2019-01-13T03:11:10.079Z,17.04
2019-01-13T03:12:10.243Z,17.04
2019-01-13T03:13:10.408Z,17.04
2019-01-13T03:14:10.381Z,17.04
2019-01-13T03:15:10.221Z,17.03
2019-01-13T03:16:10.659Z,17.02
2019-01-13T03:17:10.419Z,17.02
2019-01-13T03:18:10.227Z,17.02
2019-01-13T03:19:10.388Z,17.03
2019-01-13T03:20:10.371Z,17.01
2019-01-13T03:21:10.385Z,17.01
2019-01-13T03:22:10.366Z,17.01
2019-01-13T03:23:10.316Z,17.02
2019-01-13T03:24:10.439Z,17.02
2019-01-13T03:25:12.514Z,17.01
2019-01-13T03:26:10.384Z,17
2019-01-13T03:27:10.325Z,17
2019-01-13T03:28:10.207Z,17
2019-01-13T03:29:10.439Z,17.01
2019-01-13T03:30:10.626Z,17
2019-01-13T03:31:13.290Z,17
2019-01-13T03:32:10.488Z,16.99
2019-01-13T03:33:10.615Z,16.98
2019-01-13T03:34:10.209Z,16.98
2019-01-13T03:35:10.554Z,16.98
2019-01-13T03:36:10.545Z,16.98
2019-01-13T03:37:10.071Z,16.98
2019-01-13T03:38:10.804Z,16.98
2019-01-13T03:39:12.205Z,16.98
2019-01-13T03:40:11.104Z,16.97
2019-01-13T03:41:10.335Z,16.98
2019-01-13T03:42:10.291Z,16.96
2019-01-13T03:43:11.508Z,16.96
2019-01-13T03:44:10.612Z,16.95
2019-01-13T03:45:10.423Z,16.96
2019-01-13T03:46:10.067Z,16.95
2019-01-13T03:47:10.384Z,16.96
2019-01-13T03:48:10.410Z,16.95
2019-01-13T03:49:10.291Z,16.94
2019-01-13T03:50:10.757Z,16.94
2019-01-13T03:51:10.893Z,16.96
2019-01-13T03:52:10.302Z,16.95
2019-01-13T03:53:10.196Z,16.95
2019-01-13T03:54:10.191Z,16.94
2019-01-13T03:55:10.289Z,16.94
2019-01-13T03:56:11.011Z,16.93
2019-01-13T03:57:10.397Z,16.93
2019-01-13T03:58:11.445Z,16.92
2019-01-13T03:59:10.224Z,16.93
2019-01-13T04:00:10.223Z,16.92
2019-01-13T04:01:18.998Z,16.92
2019-01-13T04:02:10.548Z,16.9
2019-01-13T04:03:10.116Z,16.92
2019-01-13T04:04:11.255Z,16.91
2019-01-13T04:05:10.384Z,16.91
2019-01-13T04:06:10.142Z,16.9
2019-01-13T04:07:10.247Z,16.9
2019-01-13T04:08:10.977Z,16.89
2019-01-13T04:09:10.520Z,16.9
2019-01-13T04:10:10.485Z,16.9
2019-01-13T04:11:10.431Z,16.89
2019-01-13T04:12:10.513Z,16.89
2019-01-13T04:13:10.299Z,16.87
2019-01-13T04:14:10.554Z,16.88
2019-01-13T04:15:10.635Z,16.88
2019-01-13T04:16:10.570Z,16.88
2019-01-13T04:17:10.289Z,16.88
2019-01-13T04:18:10.697Z,16.86
2019-01-13T04:19:10.246Z,16.86
2019-01-13T04:20:10.187Z,16.85
2019-01-13T04:21:10.553Z,16.85
2019-01-13T04:22:10.411Z,16.86
2019-01-13T04:23:10.120Z,16.86
2019-01-13T04:24:12.098Z,16.85
2019-01-13T04:25:10.097Z,16.86
2019-01-13T04:26:10.326Z,16.86
2019-01-13T04:27:10.256Z,16.85
2019-01-13T04:28:10.390Z,16.86
2019-01-13T04:29:10.425Z,16.86
2019-01-13T04:30:10.662Z,16.85
2019-01-13T04:31:10.880Z,16.84
2019-01-13T04:32:10.288Z,16.85
2019-01-13T04:33:10.383Z,16.84
2019-01-13T04:34:10.365Z,16.85
2019-01-13T04:35:12.174Z,16.85
2019-01-13T04:36:10.195Z,16.85
2019-01-13T04:37:11.311Z,16.85
2019-01-13T04:38:10.504Z,16.85
2019-01-13T04:39:10.255Z,16.85
2019-01-13T04:40:10.341Z,16.85
2019-01-13T04:41:10.478Z,16.85
2019-01-13T04:42:10.425Z,16.85
2019-01-13T04:43:10.321Z,16.85
2019-01-13T04:44:10.378Z,16.85
2019-01-13T04:45:10.433Z,16.85
2019-01-13T04:46:10.221Z,16.86
2019-01-13T04:47:10.172Z,16.87
2019-01-13T04:48:10.476Z,16.88
2019-01-13T04:49:10.584Z,16.89
2019-01-13T04:50:10.492Z,16.89
2019-01-13T04:51:10.146Z,16.9
2019-01-13T04:52:10.281Z,16.91
2019-01-13T04:53:10.221Z,16.92
2019-01-13T04:54:10.192Z,16.92
2019-01-13T04:55:10.547Z,16.93
2019-01-13T04:56:10.736Z,16.94
2019-01-13T04:57:10.193Z,16.96
2019-01-13T04:58:10.345Z,16.97
2019-01-13T04:59:10.226Z,16.98
2019-01-13T05:00:10.345Z,16.99
2019-01-13T05:01:10.210Z,17.01
2019-01-13T05:02:10.183Z,17.03
2019-01-13T05:03:10.338Z,17.04
2019-01-13T05:04:10.225Z,17.05
2019-01-13T05:05:10.008Z,17.08
2019-01-13T05:06:10.553Z,17.1
2019-01-13T05:07:10.239Z,17.12
2019-01-13T05:08:10.303Z,17.15
2019-01-13T05:09:10.064Z,17.17
2019-01-13T05:10:10.434Z,17.18
2019-01-13T05:11:10.315Z,17.2
2019-01-13T05:12:10.050Z,17.23
2019-01-13T05:13:10.287Z,17.24
2019-01-13T05:14:10.553Z,17.25
2019-01-13T05:15:10.563Z,17.28
2019-01-13T05:16:10.370Z,17.29
2019-01-13T05:17:10.347Z,17.3
2019-01-13T05:18:10.572Z,17.32
2019-01-13T05:19:10.287Z,17.34
2019-01-13T05:20:10.351Z,17.36
2019-01-13T05:21:10.788Z,17.38
2019-01-13T05:22:10.693Z,17.41
2019-01-13T05:23:10.171Z,17.42
2019-01-13T05:24:10.446Z,17.43
2019-01-13T05:25:10.216Z,17.45
2019-01-13T05:26:10.033Z,17.47
2019-01-13T05:27:10.156Z,17.49
2019-01-13T05:28:10.554Z,17.51
2019-01-13T05:29:10.236Z,17.52
2019-01-13T05:30:10.239Z,17.54
2019-01-13T05:31:10.236Z,17.54
2019-01-13T05:32:10.401Z,17.55
2019-01-13T05:33:10.167Z,17.58
2019-01-13T05:34:10.406Z,17.59
2019-01-13T05:35:10.196Z,17.61
2019-01-13T05:36:11.419Z,17.62
2019-01-13T05:37:10.385Z,17.64
2019-01-13T05:38:10.325Z,17.65
2019-01-13T05:39:10.963Z,17.67
2019-01-13T05:40:10.247Z,17.68
2019-01-13T05:41:10.563Z,17.7
2019-01-13T05:42:10.869Z,17.71
2019-01-13T05:43:10.142Z,17.72
2019-01-13T05:44:10.805Z,17.74
2019-01-13T05:45:10.518Z,17.74
2019-01-13T05:46:10.500Z,17.76
2019-01-13T05:47:10.452Z,17.77
2019-01-13T05:48:10.815Z,17.79
2019-01-13T05:49:10.093Z,17.8
2019-01-13T05:50:10.265Z,17.81
2019-01-13T05:51:10.492Z,17.84
2019-01-13T05:52:10.333Z,17.85
2019-01-13T05:53:10.593Z,17.86
2019-01-13T05:54:10.648Z,17.87
2019-01-13T05:55:10.559Z,17.89
2019-01-13T05:56:10.417Z,17.9
2019-01-13T05:57:10.445Z,17.92
2019-01-13T05:58:10.216Z,17.92
2019-01-13T05:59:10.459Z,17.95
2019-01-13T06:00:10.391Z,17.95
2019-01-13T06:01:10.208Z,17.98
2019-01-13T06:02:10.834Z,17.98
2019-01-13T06:03:10.248Z,18
2019-01-13T06:04:10.440Z,17.99
2019-01-13T06:05:10.390Z,18
2019-01-13T06:06:10.062Z,18.03
2019-01-13T06:07:10.904Z,18.04
2019-01-13T06:08:10.423Z,18.04
2019-01-13T06:09:10.052Z,18.05
2019-01-13T06:10:10.772Z,18.06
2019-01-13T06:11:10.109Z,18.08
2019-01-13T06:12:10.452Z,18.09
2019-01-13T06:13:10.858Z,18.1
2019-01-13T06:14:10.222Z,18.11
2019-01-13T06:15:10.205Z,18.12
2019-01-13T06:16:10.576Z,18.14
2019-01-13T06:17:10.152Z,18.15
2019-01-13T06:18:10.271Z,18.16
2019-01-13T06:19:11.122Z,18.17
2019-01-13T06:20:10.553Z,18.18
2019-01-13T06:21:11.150Z,18.19
2019-01-13T06:22:10.346Z,18.21
2019-01-13T06:23:10.218Z,18.22
2019-01-13T06:24:10.184Z,18.23
2019-01-13T06:25:10.241Z,18.23
2019-01-13T06:26:10.156Z,18.24
2019-01-13T06:27:10.203Z,18.27
2019-01-13T06:28:10.274Z,18.28
2019-01-13T06:29:10.888Z,18.28
2019-01-13T06:30:10.142Z,18.28
2019-01-13T06:31:10.413Z,18.29
2019-01-13T06:32:10.391Z,18.3
2019-01-13T06:33:10.099Z,18.31
2019-01-13T06:34:10.176Z,18.34
2019-01-13T06:35:10.239Z,18.33
2019-01-13T06:36:12.119Z,18.34
2019-01-13T06:37:10.379Z,18.34
2019-01-13T06:38:10.421Z,18.34
2019-01-13T06:39:10.023Z,18.35
2019-01-13T06:40:10.084Z,18.35
2019-01-13T06:41:10.579Z,18.36
2019-01-13T06:42:10.123Z,18.36
2019-01-13T06:43:10.297Z,18.35
2019-01-13T06:44:10.240Z,18.36
2019-01-13T06:45:10.132Z,18.38
2019-01-13T06:46:10.904Z,18.4
2019-01-13T06:47:10.292Z,18.4
2019-01-13T06:48:10.313Z,18.41
2019-01-13T06:49:10.229Z,18.41
2019-01-13T06:50:11.232Z,18.43
2019-01-13T06:51:10.079Z,18.44
2019-01-13T06:52:10.136Z,18.46
2019-01-13T06:53:10.235Z,18.48
2019-01-13T06:54:10.150Z,18.51
2019-01-13T06:55:10.402Z,18.5
2019-01-13T06:56:09.996Z,18.51
2019-01-13T06:57:10.087Z,18.52
2019-01-13T06:58:10.882Z,18.53
2019-01-13T06:59:10.217Z,18.54
2019-01-13T07:00:10.233Z,18.54
2019-01-13T07:01:10.407Z,18.55
2019-01-13T07:02:10.109Z,18.56
2019-01-13T07:03:10.859Z,18.55
2019-01-13T07:04:10.276Z,18.39
2019-01-13T07:05:10.395Z,18.17
2019-01-13T07:06:10.439Z,18
2019-01-13T07:07:10.553Z,17.92
2019-01-13T07:08:10.256Z,17.92
2019-01-13T07:09:10.420Z,17.98
2019-01-13T07:10:13.085Z,18.04
2019-01-13T07:11:10.492Z,18.1
2019-01-13T07:12:10.501Z,18.16
2019-01-13T07:13:10.184Z,18.21
2019-01-13T07:14:10.400Z,18.23
2019-01-13T07:15:10.247Z,18.28
2019-01-13T07:16:10.799Z,18.29
2019-01-13T07:17:10.417Z,18.33
2019-01-13T07:18:10.564Z,18.35
2019-01-13T07:19:11.125Z,18.38
2019-01-13T07:20:10.238Z,18.4
2019-01-13T07:21:10.364Z,18.42
2019-01-13T07:22:10.098Z,18.44
2019-01-13T07:23:10.209Z,18.46
2019-01-13T07:24:10.491Z,18.47
2019-01-13T07:25:10.096Z,18.48
2019-01-13T07:26:11.253Z,18.48
2019-01-13T07:27:12.177Z,18.5
2019-01-13T07:28:10.191Z,18.51
2019-01-13T07:29:11.171Z,18.51
2019-01-13T07:30:10.734Z,18.52
2019-01-13T07:31:10.304Z,18.52
2019-01-13T07:32:11.157Z,18.52
2019-01-13T07:33:10.303Z,18.53
2019-01-13T07:34:10.091Z,18.53
2019-01-13T07:35:10.356Z,18.54
2019-01-13T07:36:10.147Z,18.54
2019-01-13T07:37:10.755Z,18.54
2019-01-13T07:38:10.498Z,18.53
2019-01-13T07:39:10.362Z,18.53
2019-01-13T07:40:10.125Z,18.53
2019-01-13T07:41:10.726Z,18.54
2019-01-13T07:42:12.018Z,18.53
2019-01-13T07:43:10.248Z,18.53
2019-01-13T07:44:10.104Z,18.53
2019-01-13T07:45:10.093Z,18.53
2019-01-13T07:46:10.415Z,18.54
2019-01-13T07:47:10.149Z,18.53
2019-01-13T07:48:10.228Z,18.52
2019-01-13T07:49:10.332Z,18.52
2019-01-13T07:50:10.538Z,18.53
2019-01-13T07:51:10.431Z,18.52
2019-01-13T07:52:10.128Z,18.51
2019-01-13T07:53:10.196Z,18.51
2019-01-13T07:54:10.549Z,18.51
2019-01-13T07:55:10.136Z,18.53
2019-01-13T07:56:10.991Z,18.54
2019-01-13T07:57:10.244Z,18.5
2019-01-13T07:58:09.947Z,18.48
2019-01-13T07:59:10.149Z,18.47
2019-01-13T08:00:10.164Z,18.47
2019-01-13T08:01:10.144Z,18.45
2019-01-13T08:02:10.325Z,18.44
2019-01-13T08:03:10.170Z,18.44
2019-01-13T08:04:10.431Z,18.44
2019-01-13T08:05:10.440Z,18.44
2019-01-13T08:06:10.292Z,18.44
2019-01-13T08:07:09.976Z,18.44
2019-01-13T08:08:11.286Z,18.46
2019-01-13T08:09:10.474Z,18.46
2019-01-13T08:10:10.142Z,18.47
2019-01-13T08:11:10.026Z,18.48
2019-01-13T08:12:10.391Z,18.48
2019-01-13T08:13:10.022Z,18.48
2019-01-13T08:14:10.442Z,18.49
2019-01-13T08:15:11.352Z,18.5
2019-01-13T08:16:10.227Z,18.52
2019-01-13T08:17:10.487Z,18.52
2019-01-13T08:18:10.337Z,18.53
2019-01-13T08:19:10.439Z,18.54
2019-01-13T08:20:10.288Z,18.56
2019-01-13T08:21:10.483Z,18.56
2019-01-13T08:22:10.103Z,18.57
2019-01-13T08:23:10.352Z,18.57
2019-01-13T08:24:10.116Z,18.58
2019-01-13T08:25:10.291Z,18.59
2019-01-13T08:26:10.046Z,18.58
2019-01-13T08:27:10.114Z,18.6
2019-01-13T08:28:10.489Z,18.6
2019-01-13T08:29:10.132Z,18.61
2019-01-13T08:30:10.442Z,18.61
2019-01-13T08:31:10.040Z,18.62
2019-01-13T08:32:09.950Z,18.62
2019-01-13T08:33:10.159Z,18.63
2019-01-13T08:34:10.267Z,18.63
2019-01-13T08:35:10.175Z,18.62
2019-01-13T08:36:10.222Z,18.63
2019-01-13T08:37:10.311Z,18.63
2019-01-13T08:38:10.395Z,18.64
2019-01-13T08:39:10.184Z,18.65
2019-01-13T08:40:10.374Z,18.66
2019-01-13T08:41:10.075Z,18.66
2019-01-13T08:42:10.246Z,18.66
2019-01-13T08:43:10.324Z,18.66
2019-01-13T08:44:10.169Z,18.66
2019-01-13T08:45:10.508Z,18.66
2019-01-13T08:46:10.353Z,18.67
2019-01-13T08:47:10.453Z,18.67
2019-01-13T08:48:10.482Z,18.67
2019-01-13T08:49:10.474Z,18.68
2019-01-13T08:50:10.087Z,18.67
2019-01-13T08:51:10.364Z,18.67
2019-01-13T08:52:10.207Z,18.68
2019-01-13T08:53:10.257Z,18.69
2019-01-13T08:54:10.260Z,18.68
2019-01-13T08:55:11.177Z,18.69
2019-01-13T08:56:10.233Z,18.7
2019-01-13T08:57:10.316Z,18.7
2019-01-13T08:58:11.986Z,18.71
2019-01-13T08:59:10.182Z,18.71
2019-01-13T09:00:10.336Z,18.72
2019-01-13T09:01:10.355Z,18.72
2019-01-13T09:02:10.866Z,18.72
2019-01-13T09:03:10.474Z,18.72
2019-01-13T09:04:10.740Z,18.72
2019-01-13T09:05:10.598Z,18.72
2019-01-13T09:06:10.061Z,18.72
2019-01-13T09:07:10.698Z,18.72
2019-01-13T09:08:11.174Z,18.73
2019-01-13T09:09:10.194Z,18.73
2019-01-13T09:10:10.277Z,18.74
2019-01-13T09:11:10.307Z,18.74
2019-01-13T09:12:10.130Z,18.74
2019-01-13T09:13:11.229Z,18.74
2019-01-13T09:14:10.144Z,18.74
2019-01-13T09:15:10.176Z,18.74
2019-01-13T09:16:10.577Z,18.75
2019-01-13T09:17:10.057Z,18.75
2019-01-13T09:18:10.867Z,18.76
2019-01-13T09:19:10.098Z,18.77
2019-01-13T09:20:10.126Z,18.77
2019-01-13T09:21:12.139Z,18.77
2019-01-13T09:22:10.057Z,18.78
2019-01-13T09:23:10.304Z,18.78
2019-01-13T09:24:12.074Z,18.78
2019-01-13T09:25:10.385Z,18.78
2019-01-13T09:26:10.326Z,18.8
2019-01-13T09:27:10.439Z,18.79
2019-01-13T09:28:10.158Z,18.81
2019-01-13T09:29:11.261Z,18.79
2019-01-13T09:30:10.315Z,18.8
2019-01-13T09:31:10.139Z,18.81
2019-01-13T09:32:10.127Z,18.81
2019-01-13T09:33:10.583Z,18.8
2019-01-13T09:34:10.019Z,18.81
2019-01-13T09:35:10.112Z,18.82
2019-01-13T09:36:10.292Z,18.83
2019-01-13T09:37:10.021Z,18.84
2019-01-13T09:38:10.318Z,18.87
2019-01-13T09:39:10.184Z,18.9
2019-01-13T09:40:10.034Z,18.9
2019-01-13T09:41:10.226Z,18.91
2019-01-13T09:42:09.969Z,18.94
2019-01-13T09:43:11.984Z,18.96
2019-01-13T09:44:10.421Z,18.97
2019-01-13T09:45:11.058Z,19
2019-01-13T09:46:10.255Z,19
2019-01-13T09:47:10.296Z,19.02
2019-01-13T09:48:10.119Z,19.03
2019-01-13T09:49:11.417Z,19.03
2019-01-13T09:50:10.252Z,19.04
2019-01-13T09:51:10.215Z,19.05
2019-01-13T09:52:10.492Z,19.06
2019-01-13T09:53:10.456Z,19.07
2019-01-13T09:54:10.012Z,19.08
2019-01-13T09:55:10.099Z,19.08
2019-01-13T09:56:10.410Z,19.06
2019-01-13T09:57:10.419Z,19.05
2019-01-13T09:58:10.096Z,19.09
2019-01-13T09:59:10.310Z,19.08
2019-01-13T10:00:09.986Z,19.08
2019-01-13T10:01:10.354Z,19.09
2019-01-13T10:02:10.286Z,19.09
2019-01-13T10:03:10.402Z,19.09
2019-01-13T10:04:10.093Z,19.09
2019-01-13T10:05:10.322Z,19.09
2019-01-13T10:06:10.082Z,19.14
2019-01-13T10:07:10.231Z,19.14
2019-01-13T10:08:10.585Z,19.16
2019-01-13T10:09:10.045Z,19.15
2019-01-13T10:10:10.169Z,19.15
2019-01-13T10:11:10.175Z,19.15
2019-01-13T10:12:10.122Z,19.14
2019-01-13T10:13:10.235Z,19.15
2019-01-13T10:14:09.898Z,19.15
2019-01-13T10:15:10.142Z,19.16
2019-01-13T10:16:10.347Z,19.17
2019-01-13T10:17:10.417Z,19.16
2019-01-13T10:18:10.041Z,19.16
2019-01-13T10:19:10.086Z,19.2
2019-01-13T10:20:10.035Z,19.2
2019-01-13T10:21:10.102Z,19.2
2019-01-13T10:22:10.157Z,19.21
2019-01-13T10:23:10.012Z,19.22
2019-01-13T10:24:10.236Z,19.23
2019-01-13T10:25:10.071Z,19.23
2019-01-13T10:26:10.220Z,19.25
2019-01-13T10:27:10.088Z,19.26
2019-01-13T10:28:09.924Z,19.26
2019-01-13T10:29:10.153Z,19.28
2019-01-13T10:30:10.228Z,19.3
2019-01-13T10:31:10.269Z,19.35
2019-01-13T10:32:10.060Z,19.31
2019-01-13T10:33:10.226Z,19.31
2019-01-13T10:34:10.595Z,19.32
2019-01-13T10:35:09.944Z,19.32
2019-01-13T10:36:10.280Z,19.33
2019-01-13T10:37:09.936Z,19.33
2019-01-13T10:38:10.565Z,19.34
2019-01-13T10:39:10.425Z,19.34
2019-01-13T10:40:10.224Z,19.35
2019-01-13T10:41:10.086Z,19.34
2019-01-13T10:42:10.410Z,19.35
2019-01-13T10:43:10.740Z,19.37
2019-01-13T10:44:10.973Z,19.39
2019-01-13T10:45:10.556Z,19.38
2019-01-13T10:46:10.212Z,19.39
2019-01-13T10:47:10.167Z,19.4
2019-01-13T10:48:10.465Z,19.41
2019-01-13T10:49:11.288Z,19.42
2019-01-13T10:50:10.099Z,19.43
2019-01-13T10:51:10.328Z,19.42
2019-01-13T10:52:09.899Z,19.42
2019-01-13T10:52:58.987Z,19.59
2019-01-13T10:54:17.220Z,19.7
2019-01-13T10:55:16.947Z,19.75
2019-01-13T10:56:17.045Z,19.81
2019-01-13T10:57:17.209Z,19.93
2019-01-13T10:58:17.381Z,19.93
2019-01-13T10:59:17.322Z,19.94
2019-01-13T10:59:59.124Z,19.98
2019-01-13T11:00:59.619Z,20.02
2019-01-13T11:01:59.771Z,20.03
2019-01-13T11:03:03.333Z,20.05
2019-01-13T11:03:59.314Z,20.07
2019-01-13T11:05:00.253Z,20.09
2019-01-13T11:06:02.918Z,20.11
2019-01-13T11:07:00.499Z,20.12
2019-01-13T11:08:00.591Z,20.14
2019-01-13T11:09:00.461Z,20.15
2019-01-13T11:09:59.897Z,20.16
2019-01-13T11:11:02.333Z,20.18
2019-01-13T11:11:59.619Z,20.18
2019-01-13T11:12:59.399Z,20.18
2019-01-13T11:14:01.743Z,20.19
2019-01-13T11:14:39.445Z,20.28
2019-01-13T11:15:38.888Z,20.14
2019-01-13T11:16:41.660Z,20.11
2019-01-13T11:17:38.840Z,20.03
2019-01-13T11:18:38.937Z,19.96
2019-01-13T11:19:38.570Z,19.94
2019-01-13T11:20:39.059Z,19.91
2019-01-13T11:21:39.129Z,19.89
2019-01-13T11:22:38.848Z,19.87
2019-01-13T11:23:40.102Z,19.84
2019-01-13T11:24:38.846Z,19.81
2019-01-13T11:25:38.598Z,19.79
2019-01-13T11:26:38.480Z,19.77
2019-01-13T11:27:38.588Z,19.75
2019-01-13T11:28:38.967Z,19.75
2019-01-13T11:29:38.592Z,19.75
2019-01-13T11:30:38.993Z,19.74
2019-01-13T11:31:38.437Z,19.73
2019-01-13T11:32:38.825Z,19.74
2019-01-13T11:33:38.719Z,19.73
2019-01-13T11:34:38.400Z,19.71
2019-01-13T11:35:38.949Z,19.7
2019-01-13T11:36:38.768Z,19.7
2019-01-13T11:37:38.711Z,19.69
2019-01-13T11:38:38.750Z,19.69
2019-01-13T11:39:41.247Z,19.7
2019-01-13T11:40:39.510Z,19.69
2019-01-13T11:41:38.666Z,19.7
2019-01-13T11:42:38.677Z,19.69
2019-01-13T11:43:38.349Z,19.69
2019-01-13T11:44:38.807Z,19.69
2019-01-13T11:45:39.182Z,19.69
2019-01-13T11:46:38.470Z,19.69
2019-01-13T11:47:39.071Z,19.71
2019-01-13T11:48:39.161Z,19.71
2019-01-13T11:49:39.335Z,19.69
2019-01-13T11:50:38.994Z,19.66
2019-01-13T11:51:38.758Z,19.65
2019-01-13T11:52:38.810Z,19.64
2019-01-13T11:53:38.826Z,19.63
2019-01-13T11:54:40.601Z,19.63
2019-01-13T11:55:38.778Z,19.63
2019-01-13T11:56:38.517Z,19.63
2019-01-13T11:57:38.851Z,19.63
2019-01-13T11:58:38.801Z,19.64
2019-01-13T11:59:38.867Z,19.64
2019-01-13T12:00:38.891Z,19.64
2019-01-13T12:01:38.860Z,19.63
2019-01-13T12:02:38.517Z,19.64
2019-01-13T12:03:38.843Z,19.64
2019-01-13T12:04:38.992Z,19.65
2019-01-13T12:05:38.560Z,19.66
2019-01-13T12:06:39.067Z,19.64
2019-01-13T12:07:38.991Z,19.65
2019-01-13T12:08:39.859Z,19.65
2019-01-13T12:09:38.434Z,19.66
2019-01-13T12:10:38.565Z,19.67
2019-01-13T12:11:38.316Z,19.67
2019-01-13T12:12:38.408Z,19.67
2019-01-13T12:13:38.787Z,19.68
2019-01-13T12:14:38.840Z,19.69
2019-01-13T12:15:38.779Z,19.69
2019-01-13T12:16:39.068Z,19.72
2019-01-13T12:17:38.466Z,19.69
2019-01-13T12:18:41.435Z,19.7
2019-01-13T12:19:40.452Z,19.72
2019-01-13T12:20:39.234Z,19.71
2019-01-13T12:21:38.409Z,19.72
2019-01-13T12:22:38.470Z,19.73
2019-01-13T12:23:38.759Z,19.72
2019-01-13T12:24:38.725Z,19.73
2019-01-13T12:25:38.495Z,19.74
2019-01-13T12:26:38.848Z,19.74
2019-01-13T12:27:38.586Z,19.75
2019-01-13T12:28:38.426Z,19.75
2019-01-13T12:29:38.606Z,19.75
2019-01-13T12:30:38.616Z,19.76
2019-01-13T12:31:38.474Z,19.76
2019-01-13T12:32:38.590Z,19.76
2019-01-13T12:33:38.511Z,19.76
2019-01-13T12:34:38.630Z,19.78
2019-01-13T12:35:38.889Z,19.78
2019-01-13T12:36:38.597Z,19.77
2019-01-13T12:37:39.010Z,19.79
2019-01-13T12:38:39.743Z,19.79
2019-01-13T12:39:38.553Z,19.79
2019-01-13T12:40:39.126Z,19.81
2019-01-13T12:41:38.678Z,19.8
2019-01-13T12:42:38.420Z,19.8
2019-01-13T12:43:39.422Z,19.8
2019-01-13T12:44:38.748Z,19.81
2019-01-13T12:45:38.775Z,19.81
2019-01-13T12:46:39.116Z,19.78
2019-01-13T12:47:38.725Z,19.77
2019-01-13T12:48:38.482Z,19.76
2019-01-13T12:49:38.433Z,19.76
2019-01-13T12:50:39.293Z,19.77
2019-01-13T12:51:38.887Z,19.76
2019-01-13T12:52:38.790Z,19.75
2019-01-13T12:53:38.617Z,19.75
2019-01-13T12:54:38.584Z,19.75